K21 EFPO-EFSI
Flight info
| Callsign | K21 |
|---|---|
| Flight time | 0h 54m |
| Altitude | 3000 |
| Route | MORHI PAJUNIEMI IKAALINEN JALASJARVI JOKIP |
| Aircraft | G115/L-SDGR/C |
Departure
| Time | 2026-05-06 18:14 |
|---|---|
| Airport | Pori Airport (EFPO) |
Arrival
| Time | 2026-05-06 19:08 |
|---|---|
| Airport | Seinäjoki Airport (EFSI) |
| Time | Latitude | Longitude | Altitude | Speed | Heading |
|---|---|---|---|---|---|
| 2026-05-06 18:03 | 61.46777 | 21.79234 | 39 ft | 0 kts | 127° |
| 2026-05-06 18:10 | 61.46774 | 21.79249 | 39 ft | 7 kts | 99° |
| 2026-05-06 18:10 | 61.46789 | 21.79101 | 39 ft | 22 kts | 253° |
| 2026-05-06 18:10 | 61.46691 | 21.79096 | 39 ft | 19 kts | 128° |
| 2026-05-06 18:10 | 61.46620 | 21.79309 | 39 ft | 17 kts | 123° |
| 2026-05-06 18:11 | 61.46552 | 21.79496 | 38 ft | 15 kts | 123° |
| 2026-05-06 18:11 | 61.46497 | 21.79677 | 37 ft | 14 kts | 127° |
| 2026-05-06 18:11 | 61.46410 | 21.79917 | 37 ft | 27 kts | 124° |
| 2026-05-06 18:11 | 61.46309 | 21.80212 | 38 ft | 23 kts | 128° |
| 2026-05-06 18:12 | 61.46224 | 21.80463 | 38 ft | 20 kts | 123° |
| 2026-05-06 18:12 | 61.46129 | 21.80631 | 38 ft | 18 kts | 188° |
| 2026-05-06 18:12 | 61.46086 | 21.80580 | 38 ft | 0 kts | 227° |
| 2026-05-06 18:13 | 61.46074 | 21.80527 | 38 ft | 14 kts | 258° |
| 2026-05-06 18:13 | 61.46083 | 21.80283 | 40 ft | 16 kts | 289° |
| 2026-05-06 18:13 | 61.46111 | 21.80173 | 39 ft | 0 kts | 307° |
| 2026-05-06 18:14 | 61.46158 | 21.80039 | 38 ft | 40 kts | 306° |
| 2026-05-06 18:14 | 61.46396 | 21.79357 | 181 ft | 64 kts | 296° |
| 2026-05-06 18:14 | 61.46611 | 21.78504 | 431 ft | 68 kts | 290° |
| 2026-05-06 18:14 | 61.46924 | 21.77902 | 758 ft | 68 kts | 345° |
| 2026-05-06 18:15 | 61.47432 | 21.78099 | 985 ft | 85 kts | 34° |
| 2026-05-06 18:15 | 61.47696 | 21.79311 | 1150 ft | 105 kts | 89° |
| 2026-05-06 18:15 | 61.47471 | 21.80889 | 1235 ft | 119 kts | 112° |
| 2026-05-06 18:15 | 61.47261 | 21.82627 | 1370 ft | 127 kts | 103° |
| 2026-05-06 18:16 | 61.47087 | 21.84494 | 1454 ft | 130 kts | 104° |
| 2026-05-06 18:16 | 61.46857 | 21.86325 | 1560 ft | 133 kts | 106° |
| 2026-05-06 18:16 | 61.46668 | 21.88185 | 1649 ft | 129 kts | 103° |
| 2026-05-06 18:16 | 61.46518 | 21.90218 | 1424 ft | 148 kts | 92° |
| 2026-05-06 18:17 | 61.46545 | 21.92374 | 1362 ft | 146 kts | 90° |
| 2026-05-06 18:17 | 61.46584 | 21.94456 | 1428 ft | 140 kts | 89° |
| 2026-05-06 18:17 | 61.46649 | 21.96488 | 1460 ft | 142 kts | 85° |
| 2026-05-06 18:17 | 61.46778 | 21.98547 | 1470 ft | 144 kts | 83° |
| 2026-05-06 18:18 | 61.46916 | 22.00644 | 1354 ft | 148 kts | 82° |
| 2026-05-06 18:18 | 61.47046 | 22.02772 | 1151 ft | 148 kts | 85° |
| 2026-05-06 18:18 | 61.47161 | 22.04900 | 1030 ft | 146 kts | 87° |
| 2026-05-06 18:18 | 61.47192 | 22.06991 | 943 ft | 142 kts | 93° |
| 2026-05-06 18:19 | 61.47155 | 22.08957 | 1087 ft | 132 kts | 92° |
| 2026-05-06 18:19 | 61.47192 | 22.10873 | 1120 ft | 133 kts | 88° |
| 2026-05-06 18:19 | 61.47309 | 22.12798 | 1110 ft | 136 kts | 82° |
| 2026-05-06 18:19 | 61.47499 | 22.14748 | 1105 ft | 137 kts | 78° |
| 2026-05-06 18:20 | 61.47717 | 22.16665 | 1193 ft | 132 kts | 79° |
| 2026-05-06 18:20 | 61.47921 | 22.18559 | 1221 ft | 134 kts | 77° |
| 2026-05-06 18:20 | 61.48146 | 22.20445 | 1262 ft | 133 kts | 78° |
| 2026-05-06 18:20 | 61.48339 | 22.22326 | 1372 ft | 129 kts | 79° |
| 2026-05-06 18:21 | 61.48441 | 22.24200 | 1446 ft | 134 kts | 90° |
| 2026-05-06 18:21 | 61.48418 | 22.26103 | 1679 ft | 125 kts | 96° |
| 2026-05-06 18:21 | 61.48299 | 22.27900 | 1826 ft | 129 kts | 102° |
| 2026-05-06 18:21 | 61.48281 | 22.29824 | 1292 ft | 160 kts | 82° |
| 2026-05-06 18:22 | 61.48439 | 22.31960 | 1541 ft | 135 kts | 82° |
| 2026-05-06 18:22 | 61.48584 | 22.33838 | 1754 ft | 131 kts | 73° |
| 2026-05-06 18:22 | 61.48862 | 22.35398 | 2332 ft | 94 kts | 68° |
| 2026-05-06 18:22 | 61.49142 | 22.36874 | 2388 ft | 119 kts | 65° |
| 2026-05-06 18:23 | 61.49490 | 22.38541 | 2465 ft | 128 kts | 64° |
| 2026-05-06 18:23 | 61.49873 | 22.40206 | 2623 ft | 129 kts | 61° |
| 2026-05-06 18:23 | 61.50307 | 22.41907 | 2701 ft | 134 kts | 62° |
| 2026-05-06 18:23 | 61.50721 | 22.43681 | 2697 ft | 139 kts | 65° |
| 2026-05-06 18:24 | 61.51055 | 22.45538 | 2840 ft | 136 kts | 68° |
| 2026-05-06 18:24 | 61.51386 | 22.47374 | 2963 ft | 134 kts | 67° |
| 2026-05-06 18:24 | 61.51784 | 22.49150 | 3032 ft | 136 kts | 63° |
| 2026-05-06 18:24 | 61.52177 | 22.50984 | 3024 ft | 142 kts | 68° |
| 2026-05-06 18:25 | 61.52532 | 22.52931 | 3031 ft | 142 kts | 67° |
| 2026-05-06 18:25 | 61.52878 | 22.54846 | 3089 ft | 140 kts | 69° |
| 2026-05-06 18:25 | 61.53197 | 22.56797 | 3071 ft | 143 kts | 71° |
| 2026-05-06 18:25 | 61.53495 | 22.58794 | 3043 ft | 146 kts | 72° |
| 2026-05-06 18:26 | 61.53752 | 22.60829 | 3055 ft | 142 kts | 75° |
| 2026-05-06 18:26 | 61.53974 | 22.62858 | 3066 ft | 143 kts | 76° |
| 2026-05-06 18:26 | 61.54238 | 22.64867 | 3068 ft | 143 kts | 71° |
| 2026-05-06 18:26 | 61.54545 | 22.66856 | 3078 ft | 143 kts | 70° |
| 2026-05-06 18:27 | 61.54928 | 22.68766 | 3103 ft | 143 kts | 62° |
| 2026-05-06 18:27 | 61.55353 | 22.70678 | 3029 ft | 148 kts | 64° |
| 2026-05-06 18:27 | 61.55703 | 22.72416 | 3085 ft | 113 kts | 63° |
| 2026-05-06 18:27 | 61.56167 | 22.74269 | 2723 ft | 153 kts | 56° |
| 2026-05-06 18:28 | 61.56735 | 22.76098 | 2727 ft | 147 kts | 52° |
| 2026-05-06 18:28 | 61.57330 | 22.77842 | 2702 ft | 147 kts | 53° |
| 2026-05-06 18:28 | 61.57856 | 22.79717 | 2623 ft | 149 kts | 54° |
| 2026-05-06 18:28 | 61.58465 | 22.81452 | 2600 ft | 147 kts | 46° |
| 2026-05-06 18:29 | 61.59147 | 22.83011 | 2621 ft | 144 kts | 43° |
| 2026-05-06 18:29 | 61.59838 | 22.84439 | 2766 ft | 136 kts | 39° |
| 2026-05-06 18:29 | 61.60572 | 22.85676 | 2844 ft | 135 kts | 32° |
| 2026-05-06 18:29 | 61.61350 | 22.86779 | 2893 ft | 134 kts | 32° |
| 2026-05-06 18:30 | 61.62134 | 22.87964 | 2843 ft | 139 kts | 28° |
| 2026-05-06 18:30 | 61.62970 | 22.88947 | 2923 ft | 135 kts | 24° |
| 2026-05-06 18:30 | 61.63779 | 22.89855 | 3087 ft | 130 kts | 25° |
| 2026-05-06 18:30 | 61.64571 | 22.90882 | 3097 ft | 136 kts | 29° |
| 2026-05-06 18:31 | 61.65357 | 22.91978 | 3221 ft | 133 kts | 31° |
| 2026-05-06 18:31 | 61.66187 | 22.93150 | 2996 ft | 147 kts | 29° |
| 2026-05-06 18:31 | 61.67051 | 22.94292 | 2851 ft | 150 kts | 28° |
| 2026-05-06 18:31 | 61.67942 | 22.95444 | 2747 ft | 149 kts | 27° |
| 2026-05-06 18:32 | 61.68832 | 22.96537 | 2690 ft | 146 kts | 27° |
| 2026-05-06 18:32 | 61.69676 | 22.97623 | 2759 ft | 139 kts | 27° |
| 2026-05-06 18:32 | 61.70468 | 22.98836 | 2673 ft | 146 kts | 34° |
| 2026-05-06 18:32 | 61.71319 | 22.99984 | 2622 ft | 144 kts | 25° |
| 2026-05-06 18:33 | 61.72212 | 23.00914 | 2573 ft | 144 kts | 22° |
| 2026-05-06 18:33 | 61.73084 | 23.01948 | 2552 ft | 143 kts | 27° |
| 2026-05-06 18:33 | 61.73920 | 23.03060 | 2537 ft | 144 kts | 33° |
| 2026-05-06 18:33 | 61.74680 | 23.04400 | 2629 ft | 137 kts | 37° |
| 2026-05-06 18:34 | 61.75385 | 23.05775 | 2675 ft | 138 kts | 40° |
| 2026-05-06 18:34 | 61.76086 | 23.07077 | 2800 ft | 135 kts | 36° |
| 2026-05-06 18:34 | 61.76846 | 23.08333 | 2764 ft | 140 kts | 34° |
| 2026-05-06 18:34 | 61.77648 | 23.09555 | 2717 ft | 143 kts | 34° |
| 2026-05-06 18:35 | 61.78512 | 23.10298 | 2647 ft | 137 kts | 346° |
| 2026-05-06 18:35 | 61.79425 | 23.09710 | 2582 ft | 136 kts | 339° |
| 2026-05-06 18:35 | 61.80305 | 23.09135 | 2640 ft | 130 kts | 336° |
| 2026-05-06 18:35 | 61.81148 | 23.08437 | 2651 ft | 130 kts | 333° |
| 2026-05-06 18:36 | 61.81987 | 23.07747 | 2691 ft | 129 kts | 335° |
| 2026-05-06 18:36 | 61.82850 | 23.07174 | 2702 ft | 131 kts | 342° |
| 2026-05-06 18:36 | 61.83757 | 23.06755 | 2680 ft | 133 kts | 342° |
| 2026-05-06 18:36 | 61.84658 | 23.06355 | 2732 ft | 132 kts | 345° |
| 2026-05-06 18:37 | 61.85567 | 23.06078 | 2764 ft | 133 kts | 348° |
| 2026-05-06 18:37 | 61.86176 | 23.05963 | 2796 ft | 132 kts | 350° |
| 2026-05-06 18:37 | 61.87404 | 23.05744 | 2828 ft | 133 kts | 349° |
| 2026-05-06 18:37 | 61.88224 | 23.05512 | 2864 ft | 132 kts | 347° |
| 2026-05-06 18:38 | 61.89135 | 23.05206 | 2871 ft | 134 kts | 346° |
| 2026-05-06 18:38 | 61.90060 | 23.04900 | 2867 ft | 134 kts | 347° |
| 2026-05-06 18:38 | 61.90987 | 23.04604 | 2859 ft | 135 kts | 347° |
| 2026-05-06 18:38 | 61.91913 | 23.04321 | 2868 ft | 134 kts | 347° |
| 2026-05-06 18:39 | 61.92828 | 23.04039 | 2862 ft | 135 kts | 347° |
| 2026-05-06 18:39 | 61.93757 | 23.03747 | 2862 ft | 135 kts | 347° |
| 2026-05-06 18:39 | 61.94691 | 23.03452 | 2864 ft | 136 kts | 347° |
| 2026-05-06 18:40 | 61.96554 | 23.02856 | 2854 ft | 135 kts | 347° |
| 2026-05-06 18:40 | 61.97481 | 23.02558 | 2855 ft | 135 kts | 347° |
| 2026-05-06 18:40 | 61.98409 | 23.02264 | 2858 ft | 135 kts | 347° |
| 2026-05-06 18:40 | 61.99336 | 23.01973 | 2858 ft | 134 kts | 346° |
| 2026-05-06 18:41 | 62.00228 | 23.01479 | 2862 ft | 133 kts | 342° |
| 2026-05-06 18:41 | 62.01142 | 23.01097 | 2862 ft | 134 kts | 346° |
| 2026-05-06 18:41 | 62.02067 | 23.00787 | 2860 ft | 134 kts | 347° |
| 2026-05-06 18:41 | 62.02991 | 23.00495 | 2865 ft | 134 kts | 347° |
| 2026-05-06 18:42 | 62.03916 | 23.00206 | 2861 ft | 134 kts | 347° |
| 2026-05-06 18:42 | 62.04841 | 22.99918 | 2857 ft | 135 kts | 347° |
| 2026-05-06 18:42 | 62.05768 | 22.99629 | 2868 ft | 135 kts | 347° |
| 2026-05-06 18:42 | 62.06695 | 22.99337 | 2868 ft | 135 kts | 347° |
| 2026-05-06 18:43 | 62.07608 | 22.99046 | 2859 ft | 134 kts | 347° |
| 2026-05-06 18:43 | 62.08494 | 22.98534 | 2855 ft | 130 kts | 327° |
| 2026-05-06 18:43 | 62.09023 | 22.97944 | 2862 ft | 131 kts | 338° |
| 2026-05-06 18:43 | 62.09947 | 22.97768 | 2858 ft | 134 kts | 353° |
| 2026-05-06 18:44 | 62.11179 | 22.97524 | 2857 ft | 134 kts | 349° |
| 2026-05-06 18:44 | 62.12102 | 22.97258 | 2856 ft | 133 kts | 348° |
| 2026-05-06 18:44 | 62.12723 | 22.97060 | 2857 ft | 133 kts | 347° |
| 2026-05-06 18:44 | 62.13630 | 22.96752 | 2858 ft | 133 kts | 347° |
| 2026-05-06 18:45 | 62.14547 | 22.96437 | 2865 ft | 134 kts | 347° |
| 2026-05-06 18:45 | 62.15469 | 22.96136 | 2865 ft | 134 kts | 347° |
| 2026-05-06 18:45 | 62.16393 | 22.95838 | 2864 ft | 134 kts | 347° |
| 2026-05-06 18:45 | 62.17316 | 22.95547 | 2861 ft | 134 kts | 347° |
| 2026-05-06 18:46 | 62.18236 | 22.95257 | 2858 ft | 133 kts | 347° |
| 2026-05-06 18:46 | 62.19154 | 22.94965 | 2858 ft | 133 kts | 347° |
| 2026-05-06 18:46 | 62.20073 | 22.94673 | 2860 ft | 133 kts | 346° |
| 2026-05-06 18:46 | 62.20978 | 22.94284 | 2855 ft | 133 kts | 345° |
| 2026-05-06 18:47 | 62.21897 | 22.93972 | 2856 ft | 134 kts | 347° |
| 2026-05-06 18:47 | 62.22820 | 22.93691 | 2853 ft | 134 kts | 347° |
| 2026-05-06 18:47 | 62.23743 | 22.93418 | 2854 ft | 134 kts | 347° |
| 2026-05-06 18:47 | 62.24653 | 22.93146 | 2851 ft | 133 kts | 347° |
| 2026-05-06 18:48 | 62.25570 | 22.92860 | 2855 ft | 133 kts | 347° |
| 2026-05-06 18:48 | 62.26490 | 22.92572 | 2856 ft | 134 kts | 347° |
| 2026-05-06 18:48 | 62.27411 | 22.92283 | 2854 ft | 134 kts | 347° |
| 2026-05-06 18:48 | 62.28331 | 22.91991 | 2855 ft | 133 kts | 347° |
| 2026-05-06 18:49 | 62.29251 | 22.91700 | 2858 ft | 134 kts | 347° |
| 2026-05-06 18:49 | 62.30175 | 22.91416 | 2851 ft | 134 kts | 347° |
| 2026-05-06 18:49 | 62.31093 | 22.91133 | 2851 ft | 133 kts | 347° |
| 2026-05-06 18:49 | 62.32006 | 22.90844 | 2852 ft | 133 kts | 347° |
| 2026-05-06 18:50 | 62.32913 | 22.90504 | 2851 ft | 130 kts | 339° |
| 2026-05-06 18:50 | 62.33796 | 22.90024 | 2854 ft | 132 kts | 344° |
| 2026-05-06 18:50 | 62.34693 | 22.89695 | 2857 ft | 133 kts | 347° |
| 2026-05-06 18:50 | 62.35613 | 22.89396 | 2848 ft | 134 kts | 347° |
| 2026-05-06 18:51 | 62.36537 | 22.89115 | 2852 ft | 134 kts | 347° |
| 2026-05-06 18:51 | 62.37460 | 22.88827 | 2850 ft | 134 kts | 347° |
| 2026-05-06 18:51 | 62.38379 | 22.88543 | 2849 ft | 133 kts | 347° |
| 2026-05-06 18:51 | 62.39299 | 22.88254 | 2851 ft | 134 kts | 347° |
| 2026-05-06 18:52 | 62.40224 | 22.87964 | 2849 ft | 134 kts | 347° |
| 2026-05-06 18:52 | 62.41150 | 22.87675 | 2849 ft | 134 kts | 347° |
| 2026-05-06 18:52 | 62.42076 | 22.87388 | 2852 ft | 134 kts | 347° |
| 2026-05-06 18:52 | 62.43002 | 22.87098 | 2851 ft | 134 kts | 347° |
| 2026-05-06 18:53 | 62.43929 | 22.86805 | 2850 ft | 135 kts | 347° |
| 2026-05-06 18:53 | 62.44853 | 22.86512 | 2847 ft | 134 kts | 347° |
| 2026-05-06 18:53 | 62.45767 | 22.86231 | 2843 ft | 134 kts | 347° |
| 2026-05-06 18:53 | 62.46628 | 22.85640 | 2592 ft | 136 kts | 322° |
| 2026-05-06 18:54 | 62.47379 | 22.84420 | 2568 ft | 128 kts | 319° |
| 2026-05-06 18:54 | 62.48074 | 22.83268 | 2620 ft | 127 kts | 315° |
| 2026-05-06 18:54 | 62.48762 | 22.81869 | 2277 ft | 142 kts | 310° |
| 2026-05-06 18:54 | 62.49412 | 22.80215 | 1994 ft | 143 kts | 304° |
| 2026-05-06 18:55 | 62.49926 | 22.78454 | 1880 ft | 137 kts | 295° |
| 2026-05-06 18:55 | 62.50440 | 22.76720 | 1794 ft | 133 kts | 298° |
| 2026-05-06 18:55 | 62.50919 | 22.75040 | 1766 ft | 132 kts | 299° |
| 2026-05-06 18:55 | 62.51456 | 22.73426 | 1678 ft | 129 kts | 304° |
| 2026-05-06 18:56 | 62.52074 | 22.71967 | 1529 ft | 134 kts | 318° |
| 2026-05-06 18:56 | 62.52965 | 22.71443 | 1543 ft | 135 kts | 10° |
| 2026-05-06 18:56 | 62.53737 | 22.72725 | 1443 ft | 143 kts | 39° |
| 2026-05-06 18:56 | 62.54509 | 22.74078 | 1288 ft | 146 kts | 34° |
| 2026-05-06 18:57 | 62.55322 | 22.75257 | 1305 ft | 134 kts | 18° |
| 2026-05-06 18:57 | 62.56199 | 22.75887 | 1322 ft | 129 kts | 10° |
| 2026-05-06 18:57 | 62.57045 | 22.76391 | 1281 ft | 129 kts | 13° |
| 2026-05-06 18:57 | 62.57885 | 22.77250 | 1131 ft | 132 kts | 25° |
| 2026-05-06 18:58 | 62.58675 | 22.78162 | 1177 ft | 127 kts | 22° |
| 2026-05-06 18:58 | 62.59448 | 22.79001 | 1257 ft | 121 kts | 22° |
| 2026-05-06 18:58 | 62.60188 | 22.79836 | 1393 ft | 118 kts | 23° |
| 2026-05-06 18:58 | 62.60921 | 22.80699 | 1482 ft | 123 kts | 26° |
| 2026-05-06 18:59 | 62.61660 | 22.81653 | 1589 ft | 122 kts | 27° |
| 2026-05-06 18:59 | 62.62384 | 22.82610 | 1690 ft | 123 kts | 26° |
| 2026-05-06 18:59 | 62.63131 | 22.83514 | 1782 ft | 122 kts | 19° |
| 2026-05-06 18:59 | 62.63932 | 22.84208 | 1726 ft | 129 kts | 15° |
| 2026-05-06 19:00 | 62.64796 | 22.84918 | 1611 ft | 135 kts | 12° |
| 2026-05-06 19:00 | 62.65704 | 22.85220 | 1530 ft | 131 kts | 351° |
| 2026-05-06 19:00 | 62.66592 | 22.85020 | 1329 ft | 125 kts | 346° |
| 2026-05-06 19:00 | 62.67368 | 22.84301 | 967 ft | 119 kts | 321° |
| 2026-05-06 19:01 | 62.67994 | 22.83185 | 794 ft | 115 kts | 316° |
| 2026-05-06 19:01 | 62.68541 | 22.82160 | 741 ft | 98 kts | 311° |
| 2026-05-06 19:01 | 62.69022 | 22.81214 | 691 ft | 94 kts | 315° |
| 2026-05-06 19:01 | 62.69478 | 22.80262 | 743 ft | 86 kts | 310° |
| 2026-05-06 19:02 | 62.69991 | 22.79818 | 709 ft | 97 kts | 22° |
| 2026-05-06 19:02 | 62.70119 | 22.81070 | 486 ft | 90 kts | 115° |
| 2026-05-06 19:02 | 62.69817 | 22.81975 | 356 ft | 59 kts | 142° |
| 2026-05-06 19:02 | 62.69546 | 22.82601 | 442 ft | 55 kts | 139° |
| 2026-05-06 19:03 | 62.69285 | 22.83200 | 590 ft | 65 kts | 141° |
| 2026-05-06 19:03 | 62.68905 | 22.83967 | 808 ft | 81 kts | 142° |
| 2026-05-06 19:03 | 62.68425 | 22.84788 | 1070 ft | 91 kts | 146° |
| 2026-05-06 19:03 | 62.67911 | 22.85680 | 1358 ft | 101 kts | 143° |
| 2026-05-06 19:04 | 62.67329 | 22.86239 | 1656 ft | 87 kts | 205° |
| 2026-05-06 19:04 | 62.67130 | 22.85015 | 1476 ft | 104 kts | 287° |
| 2026-05-06 19:04 | 62.67604 | 22.83885 | 1229 ft | 95 kts | 313° |
| 2026-05-06 19:04 | 62.68138 | 22.83023 | 1192 ft | 98 kts | 321° |
| 2026-05-06 19:05 | 62.68650 | 22.82146 | 1096 ft | 92 kts | 312° |
| 2026-05-06 19:05 | 62.69159 | 22.81131 | 807 ft | 100 kts | 309° |
| 2026-05-06 19:05 | 62.69623 | 22.80187 | 891 ft | 88 kts | 315° |
| 2026-05-06 19:05 | 62.70078 | 22.79269 | 855 ft | 95 kts | 310° |
| 2026-05-06 19:06 | 62.70493 | 22.78162 | 917 ft | 94 kts | 302° |
| 2026-05-06 19:06 | 62.70879 | 22.77098 | 1025 ft | 89 kts | 301° |
| 2026-05-06 19:06 | 62.71211 | 22.75988 | 1095 ft | 87 kts | 296° |
| 2026-05-06 19:06 | 62.71622 | 22.75109 | 1305 ft | 94 kts | 352° |
| 2026-05-06 19:07 | 62.72176 | 22.76220 | 1278 ft | 121 kts | 75° |
| 2026-05-06 19:07 | 62.71979 | 22.77795 | 1093 ft | 108 kts | 145° |
| 2026-05-06 19:07 | 62.71370 | 22.78745 | 872 ft | 107 kts | 144° |
| 2026-05-06 19:07 | 62.70831 | 22.79863 | 674 ft | 105 kts | 141° |
| 2026-05-06 19:08 | 62.70316 | 22.80943 | 563 ft | 87 kts | 143° |
| 2026-05-06 19:08 | 62.69901 | 22.81799 | 389 ft | 82 kts | 139° |
| 2026-05-06 19:08 | 62.69516 | 22.82608 | 314 ft | 65 kts | 141° |
| 2026-05-06 19:08 | 62.69264 | 22.83097 | 307 ft | 39 kts | 135° |
| 2026-05-06 19:09 | 62.69094 | 22.83482 | 304 ft | 31 kts | 133° |
| 2026-05-06 19:09 | 62.68978 | 22.83682 | 305 ft | 14 kts | 120° |
| 2026-05-06 19:09 | 62.68996 | 22.83724 | 305 ft | 14 kts | 302° |
| 2026-05-06 19:09 | 62.69076 | 22.83525 | 304 ft | 20 kts | 317° |
| 2026-05-06 19:10 | 62.69207 | 22.83249 | 304 ft | 29 kts | 317° |
| 2026-05-06 19:10 | 62.69341 | 22.82984 | 308 ft | 23 kts | 299° |
| 2026-05-06 19:10 | 62.69287 | 22.82725 | 306 ft | 19 kts | 219° |
| 2026-05-06 19:10 | 62.69223 | 22.82586 | 306 ft | 5 kts | 241° |
| 2026-05-06 19:11 | 62.69250 | 22.82526 | 307 ft | 0 kts | 341° |